Time,TemperatureF,DewpointF,PressureIn,WindDirection,WindDirectionDegrees,WindSpeedMPH,WindSpeedGustMPH,Humidity,HourlyPrecipIn,Conditions,Clouds,dailyrainin,SoftwareType,DateUTC
2013-06-23 00:24:00,62.5,62.0,30.07,West,268,0.0,0.0,99,0.01,,,0.00,weatherlink.com 1.10,2013-06-23 04:24:00,
2013-06-23 00:32:00,62.5,63.0,30.07,West,268,0.0,0.0,100,0.01,,,0.00,weatherlink.com 1.10,2013-06-23 04:32:00,
2013-06-23 00:47:00,62.5,63.0,30.06,West,268,0.0,0.0,100,0.01,,,0.00,weatherlink.com 1.10,2013-06-23 04:47:00,
2013-06-23 01:23:00,62.2,62.0,30.06,West,268,0.0,0.0,99,0.00,,,0.00,weatherlink.com 1.10,2013-06-23 05:23:00,
2013-06-23 01:32:00,62.2,62.0,30.05,West,268,0.0,0.0,99,0.00,,,0.00,weatherlink.com 1.10,2013-06-23 05:32:00,
2013-06-23 01:48:00,62.2,62.0,30.05,West,268,0.0,0.0,99,0.00,,,0.00,weatherlink.com 1.10,2013-06-23 05:48:00,
2013-06-23 02:02:00,62.4,62.0,30.05,West,268,0.0,0.0,100,0.00,,,0.00,weatherlink.com 1.10,2013-06-23 06:02:00,
2013-06-23 02:18:00,62.4,62.0,30.05,West,268,0.0,0.0,100,0.00,,,0.00,weatherlink.com 1.10,2013-06-23 06:18:00,
2013-06-23 02:33:00,62.1,62.0,30.05,West,268,0.0,0.0,99,0.00,,,0.00,weatherlink.com 1.10,2013-06-23 06:33:00,
2013-06-23 02:48:00,62.2,62.0,30.05,West,268,0.0,0.0,100,0.00,,,0.00,weatherlink.com 1.10,2013-06-23 06:48:00,
2013-06-23 03:03:00,62.1,62.0,30.05,West,268,0.0,0.0,100,0.00,,,0.00,weatherlink.com 1.10,2013-06-23 07:03:00,
2013-06-23 03:18:00,62.0,62.0,30.04,West,268,0.0,0.0,100,0.00,,,0.00,weatherlink.com 1.10,2013-06-23 07:18:00,
2013-06-23 03:33:00,62.0,62.0,30.04,West,268,0.0,0.0,100,0.00,,,0.00,weatherlink.com 1.10,2013-06-23 07:33:00,
2013-06-23 03:48:00,62.0,62.0,30.03,West,268,0.0,0.0,100,0.00,,,0.00,weatherlink.com 1.10,2013-06-23 07:48:00,
2013-06-23 04:03:00,61.9,62.0,30.03,West,268,0.0,0.0,100,0.02,,,0.02,weatherlink.com 1.10,2013-06-23 08:03:00,
2013-06-23 04:18:00,62.0,62.0,30.02,West,268,0.0,0.0,100,0.04,,,0.04,weatherlink.com 1.10,2013-06-23 08:18:00,
2013-06-23 04:33:00,62.0,62.0,30.03,West,268,0.0,0.0,100,0.04,,,0.04,weatherlink.com 1.10,2013-06-23 08:33:00,
2013-06-23 04:48:00,62.1,62.0,30.04,West,268,0.0,0.0,100,0.04,,,0.04,weatherlink.com 1.10,2013-06-23 08:48:00,
2013-06-23 05:03:00,62.1,62.0,30.04,West,268,0.0,1.0,100,0.03,,,0.06,weatherlink.com 1.10,2013-06-23 09:03:00,
2013-06-23 05:18:00,62.3,62.0,30.03,West,268,0.0,0.0,100,0.05,,,0.09,weatherlink.com 1.10,2013-06-23 09:18:00,
2013-06-23 05:33:00,62.2,62.0,30.04,West,268,0.0,0.0,100,0.08,,,0.12,weatherlink.com 1.10,2013-06-23 09:33:00,
2013-06-23 05:48:00,62.1,62.0,30.04,West,268,0.0,0.0,100,0.10,,,0.14,weatherlink.com 1.10,2013-06-23 09:48:00,
2013-06-23 06:03:00,62.1,62.0,30.03,West,268,0.0,1.0,100,0.10,,,0.16,weatherlink.com 1.10,2013-06-23 10:03:00,
2013-06-23 06:18:00,62.2,62.0,30.04,West,268,0.0,1.0,100,0.08,,,0.17,weatherlink.com 1.10,2013-06-23 10:18:00,
2013-06-23 06:48:00,62.9,63.0,30.05,West,268,0.0,0.0,100,0.03,,,0.17,weatherlink.com 1.10,2013-06-23 10:48:00,
2013-06-23 07:03:00,63.5,64.0,30.05,West,268,0.0,1.0,100,0.01,,,0.17,weatherlink.com 1.10,2013-06-23 11:03:00,
2013-06-23 07:18:00,63.6,64.0,30.06,West,268,0.0,0.0,100,0.00,,,0.17,weatherlink.com 1.10,2013-06-23 11:18:00,
2013-06-23 07:33:00,63.8,64.0,30.06,West,268,0.0,0.0,100,0.00,,,0.17,weatherlink.com 1.10,2013-06-23 11:33:00,
2013-06-23 07:48:00,64.0,64.0,30.05,West,268,0.0,1.0,100,0.00,,,0.17,weatherlink.com 1.10,2013-06-23 11:48:00,
2013-06-23 08:03:00,64.1,64.0,30.06,West,268,0.0,1.0,100,0.00,,,0.17,weatherlink.com 1.10,2013-06-23 12:03:00,
2013-06-23 08:18:00,64.3,64.0,30.05,West,268,0.0,0.0,100,0.00,,,0.17,weatherlink.com 1.10,2013-06-23 12:18:00,
2013-06-23 08:33:00,64.9,65.0,30.05,West,268,0.0,1.0,100,0.00,,,0.17,weatherlink.com 1.10,2013-06-23 12:33:00,
2013-06-23 08:48:00,65.2,65.0,30.04,West,268,0.0,0.0,100,0.00,,,0.17,weatherlink.com 1.10,2013-06-23 12:48:00,
2013-06-23 09:03:00,65.9,66.0,30.04,SSW,213,0.0,2.0,100,0.00,,,0.17,weatherlink.com 1.10,2013-06-23 13:03:00,
2013-06-23 09:19:00,66.4,66.0,30.03,WNW,295,0.0,2.0,100,0.00,,,0.17,weatherlink.com 1.10,2013-06-23 13:19:00,
2013-06-23 09:34:00,67.2,67.0,30.03,West,261,0.0,2.0,100,0.00,,,0.17,weatherlink.com 1.10,2013-06-23 13:34:00,
2013-06-23 09:49:00,67.6,68.0,30.02,SW,225,0.0,3.0,100,0.00,,,0.17,weatherlink.com 1.10,2013-06-23 13:49:00,
2013-06-23 10:04:00,67.9,68.0,30.02,WSW,244,0.0,4.0,100,0.00,,,0.17,weatherlink.com 1.10,2013-06-23 14:04:00,
2013-06-23 10:19:00,68.7,69.0,30.02,NNW,328,1.0,2.0,100,0.00,,,0.17,weatherlink.com 1.10,2013-06-23 14:19:00,
2013-06-23 10:34:00,69.2,69.0,30.02,West,275,0.0,3.0,98,0.00,,,0.17,weatherlink.com 1.10,2013-06-23 14:34:00,
2013-06-23 10:49:00,70.2,70.0,30.02,SW,226,1.0,4.0,98,0.00,,,0.17,weatherlink.com 1.10,2013-06-23 14:49:00,
2013-06-23 11:04:00,70.9,70.0,30.01,West,276,0.0,2.0,95,0.00,,,0.17,weatherlink.com 1.10,2013-06-23 15:04:00,
2013-06-23 11:19:00,71.9,71.0,30.01,South,178,1.0,4.0,96,0.00,,,0.17,weatherlink.com 1.10,2013-06-23 15:19:00,
2013-06-23 11:34:00,73.2,71.0,30.01,SW,234,1.0,2.0,91,0.00,,,0.17,weatherlink.com 1.10,2013-06-23 15:34:00,
2013-06-23 11:58:00,74.7,71.0,30.00,WSW,241,0.0,2.0,88,0.00,,,0.17,weatherlink.com 1.10,2013-06-23 15:58:00,
2013-06-23 12:04:00,74.6,70.0,30.00,South,183,1.0,2.0,86,0.00,,,0.17,weatherlink.com 1.10,2013-06-23 16:04:00,
2013-06-23 12:19:00,75.0,72.0,30.00,SW,233,0.0,2.0,89,0.00,,,0.17,weatherlink.com 1.10,2013-06-23 16:19:00,
2013-06-23 12:34:00,75.1,71.0,29.99,ENE,72,0.0,2.0,88,0.00,,,0.17,weatherlink.com 1.10,2013-06-23 16:34:00,
2013-06-23 12:49:00,75.6,72.0,29.98,SW,231,0.0,3.0,87,0.00,,,0.17,weatherlink.com 1.10,2013-06-23 16:49:00,
2013-06-23 13:07:00,77.5,72.0,29.98,North,5,1.0,2.0,82,0.00,,,0.17,weatherlink.com 1.10,2013-06-23 17:07:00,